Processing data for WRCC monitor ID sm16 at 2026-08-31 00:12:38 UTC

Download data …

DEBUG [2026-08-31 00:12:38]  ----- wrcc_downloadData() ----- 
TRACE [2026-08-31 00:12:38] Downloading WRCC data for unitID sm16 ...

Parse, QC and Cluster …

DEBUG [2026-08-31 00:12:39]  ----- wrcc_parseData() ----- 
DEBUG [2026-08-31 00:12:39]  ----- wrcc_identifyDataFormat() ----- 
DEBUG [2026-08-31 00:12:39]  ----- addClustering() ----- 
DEBUG [2026-08-31 00:12:39]  ----- wrcc_qualityControl() ----- 
TRACE [2026-08-31 00:12:39] Applying ESAM QC rules ...
DEBUG [2026-08-31 00:12:39]  ----- wrcc_ESAMQualityControl() ----- 
TRACE [2026-08-31 00:12:39] Flow has 0 missing or out of range values
TRACE [2026-08-31 00:12:39] AT has 0 missing or out of range values
TRACE [2026-08-31 00:12:39] RHi has 0 missing or out of range values
TRACE [2026-08-31 00:12:39] Conc has 0 missing or out of range values
TRACE [2026-08-31 00:12:39] datetime has 0 missing or out of range values
TRACE [2026-08-31 00:12:39] Retaining 145 rows of measurements; 0 bad rows flagged

QC’d data with Flags

DateTime,GPSLat,GPSLon,Type,SerialNumber,ConcRT,Misc1,AvAirFlw,AvAirTemp,RelHumidity,BaromPress,SensorIntAT,SensorIntRH,WindSpeed,WindDir,BatteryVoltage,CO,monitorName,monitorType,QCFlag_anyBad,QCFlag_reasonCode,QCFlag_badLon,QCFlag_badLat,QCFlag_badType,QCFlag_badFlow,QCFlag_badAT,QCFlag_badRHi,QCFlag_badConcHr,QCFlag_badDateAndTime,QCFlag_duplicateHr,datetime,clusterLon,clusterLat,clusterID
2608250000,45.3321,-121.66497,9,10055,26,NA,2,26.5,32,841.7,NA,17,1,311,14.5,0,Smoke RMK 113 (Smoke #16),ESAM,FALSE,NA,FALSE,FALSE,FALSE,FALSE,FALSE,FALSE,FALSE,FALSE,FALSE,2026-08-25T00:00:00Z,-121.664948,45.332108,1
2608250100,45.3321,-121.66497,9,10055,19,NA,2,25.1,34,841.7,NA,18,1.1,355,14.5,0,Smoke RMK 113 (Smoke #16),ESAM,FALSE,NA,FALSE,FALSE,FALSE,FALSE,FALSE,FALSE,FALSE,FALSE,FALSE,2026-08-25T01:00:00Z,-121.664948,45.332108,1
2608250200,45.3321,-121.66497,9,10055,18,NA,2,22.2,40,841.8,NA,24,1,24,14.5,0,Smoke RMK 113 (Smoke #16),ESAM,FALSE,NA,FALSE,FALSE,FALSE,FALSE,FALSE,FALSE,FALSE,FALSE,FALSE,2026-08-25T02:00:00Z,-121.664948,45.332108,1
2608250300,45.3321,-121.66497,9,10055,20,NA,2,18.3,54,841.9,NA,35,0.6,358,14.5,0,Smoke RMK 113 (Smoke #16),ESAM,FALSE,NA,FALSE,FALSE,FALSE,FALSE,FALSE,FALSE,FALSE,FALSE,FALSE,2026-08-25T03:00:00Z,-121.664948,45.332108,1
2608250400,45.3321,-121.66497,9,10055,25,NA,2,15.5,61,842.5,NA,44,0.5,337,14.5,0,Smoke RMK 113 (Smoke #16),ESAM,FALSE,NA,FALSE,FALSE,FALSE,FALSE,FALSE,FALSE,FALSE,FALSE,FALSE,2026-08-25T04:00:00Z,-121.664948,45.332108,1
2608250500,45.3321,-121.66497,9,10055,33,NA,2,14.4,63,842.9,NA,48,0.5,348,14.4,0,Smoke RMK 113 (Smoke #16),ESAM,FALSE,NA,FALSE,FALSE,FALSE,FALSE,FALSE,FALSE,FALSE,FALSE,FALSE,2026-08-25T05:00:00Z,-121.664948,45.332108,1
2608250600,45.3321,-121.66497,9,10055,78,NA,2,13.7,64,842.9,NA,48,0.4,13,14.4,0,Smoke RMK 113 (Smoke #16),ESAM,FALSE,NA,FALSE,FALSE,FALSE,FALSE,FALSE,FALSE,FALSE,FALSE,FALSE,2026-08-25T06:00:00Z,-121.664948,45.332108,1
2608250700,45.3321,-121.66497,9,10055,54,NA,2,12.9,67,843.1,NA,48,0.4,17,14.4,0,Smoke RMK 113 (Smoke #16),ESAM,FALSE,NA,FALSE,FALSE,FALSE,FALSE,FALSE,FALSE,FALSE,FALSE,FALSE,2026-08-25T07:00:00Z,-121.664948,45.332108,1
2608250800,45.3321,-121.66497,9,10055,25,NA,2,13.7,60,843,NA,48,0.5,351,14.4,0,Smoke RMK 113 (Smoke #16),ESAM,FALSE,NA,FALSE,FALSE,FALSE,FALSE,FALSE,FALSE,FALSE,FALSE,FALSE,2026-08-25T08:00:00Z,-121.664948,45.332108,1
2608250900,45.3321,-121.66497,9,10055,20,NA,2,14.4,55,842.9,NA,45,0.5,317,14.5,0,Smoke RMK 113 (Smoke #16),ESAM,FALSE,NA,FALSE,FALSE,FALSE,FALSE,FALSE,FALSE,FALSE,FALSE,FALSE,2026-08-25T09:00:00Z,-121.664948,45.332108,1
2608251000,45.3321,-121.66497,9,10055,7,NA,2,14.2,52,842.7,NA,44,0.5,40,14.5,0,Smoke RMK 113 (Smoke #16),ESAM,FALSE,NA,FALSE,FALSE,FALSE,FALSE,FALSE,FALSE,FALSE,FALSE,FALSE,2026-08-25T10:00:00Z,-121.664948,45.332108,1
2608251100,45.3321,-121.66497,9,10055,3,NA,2,14.2,50,842.6,NA,43,0.5,40,14.5,0,Smoke RMK 113 (Smoke #16),ESAM,FALSE,NA,FALSE,FALSE,FALSE,FALSE,FALSE,FALSE,FALSE,FALSE,FALSE,2026-08-25T11:00:00Z,-121.664948,45.332108,1
2608251200,45.3321,-121.66497,9,10055,4,NA,2,13.4,54,842.6,NA,45,0.5,36,14.5,0,Smoke RMK 113 (Smoke #16),ESAM,FALSE,NA,FALSE,FALSE,FALSE,FALSE,FALSE,FALSE,FALSE,FALSE,FALSE,2026-08-25T12:00:00Z,-121.664948,45.332108,1
2608251300,45.3321,-121.66497,9,10055,4,NA,2,13.2,54,842.7,NA,46,0.5,28,14.5,0,Smoke RMK 113 (Smoke #16),ESAM,FALSE,NA,FALSE,FALSE,FALSE,FALSE,FALSE,FALSE,FALSE,FALSE,FALSE,2026-08-25T13:00:00Z,-121.664948,45.332108,1
2608251400,45.332096,-121.664909,9,10055,8,NA,2,14.5,54,843,NA,47,0.6,353,14.4,0,Smoke RMK 113 (Smoke #16),ESAM,FALSE,NA,FALSE,FALSE,FALSE,FALSE,FALSE,FALSE,FALSE,FALSE,FALSE,2026-08-25T14:00:00Z,-121.664948,45.332108,1
2608251500,45.332096,-121.664909,9,10055,14,NA,2,17.3,50,843,NA,46,0.7,28,14.5,0,Smoke RMK 113 (Smoke #16),ESAM,FALSE,NA,FALSE,FALSE,FALSE,FALSE,FALSE,FALSE,FALSE,FALSE,FALSE,2026-08-25T15:00:00Z,-121.664948,45.332108,1
2608251600,45.332096,-121.664909,9,10055,13,NA,2,19.2,46,842.9,NA,42,0.7,29,14.5,0,Smoke RMK 113 (Smoke #16),ESAM,FALSE,NA,FALSE,FALSE,FALSE,FALSE,FALSE,FALSE,FALSE,FALSE,FALSE,2026-08-25T16:00:00Z,-121.664948,45.332108,1
2608251700,45.332096,-121.664909,9,10055,14,NA,2,21.2,41,842.7,NA,37,0.9,329,14.5,0,Smoke RMK 113 (Smoke #16),ESAM,FALSE,NA,FALSE,FALSE,FALSE,FALSE,FALSE,FALSE,FALSE,FALSE,FALSE,2026-08-25T17:00:00Z,-121.664948,45.332108,1
2608251800,45.332096,-121.664909,9,10055,26,NA,2,22.9,39,842.9,NA,34,1,348,14.5,0,Smoke RMK 113 (Smoke #16),ESAM,FALSE,NA,FALSE,FALSE,FALSE,FALSE,FALSE,FALSE,FALSE,FALSE,FALSE,2026-08-25T18:00:00Z,-121.664948,45.332108,1
2608251900,45.332096,-121.664909,9,10055,24,NA,2,25.7,33,842.6,NA,28,1.2,315,14.5,0,Smoke RMK 113 (Smoke #16),ESAM,FALSE,NA,FALSE,FALSE,FALSE,FALSE,FALSE,FALSE,FALSE,FALSE,FALSE,2026-08-25T19:00:00Z,-121.664948,45.332108,1
2608252000,45.332096,-121.664909,9,10055,13,NA,2,26.2,33,842.7,NA,20,1.3,268,14.5,0,Smoke RMK 113 (Smoke #16),ESAM,FALSE,NA,FALSE,FALSE,FALSE,FALSE,FALSE,FALSE,FALSE,FALSE,FALSE,2026-08-25T20:00:00Z,-121.664948,45.332108,1
2608252100,45.332096,-121.664909,9,10055,9,NA,2,27.4,31,842.6,NA,17,1.3,250,14.5,0,Smoke RMK 113 (Smoke #16),ESAM,FALSE,NA,FALSE,FALSE,FALSE,FALSE,FALSE,FALSE,FALSE,FALSE,FALSE,2026-08-25T21:00:00Z,-121.664948,45.332108,1
2608252200,45.332096,-121.664909,9,10055,71,NA,2,27,32,842.7,NA,16,1.2,259,14.5,0,Smoke RMK 113 (Smoke #16),ESAM,FALSE,NA,FALSE,FALSE,FALSE,FALSE,FALSE,FALSE,FALSE,FALSE,FALSE,2026-08-25T22:00:00Z,-121.664948,45.332108,1
2608252300,45.332096,-121.664909,9,10055,110,NA,2,26.2,32,842.7,NA,17,1.1,252,14.5,0,Smoke RMK 113 (Smoke #16),ESAM,FALSE,NA,FALSE,FALSE,FALSE,FALSE,FALSE,FALSE,FALSE,FALSE,FALSE,2026-08-25T23:00:00Z,-121.664948,45.332108,1
2608260000,45.332096,-121.664909,9,10055,98,NA,2,25.6,33,842.6,NA,18,1.1,309,14.5,0,Smoke RMK 113 (Smoke #16),ESAM,FALSE,NA,FALSE,FALSE,FALSE,FALSE,FALSE,FALSE,FALSE,FALSE,FALSE,2026-08-26T00:00:00Z,-121.664948,45.332108,1
2608260100,45.332096,-121.664909,9,10055,21,NA,2,24.3,33,842.6,NA,18,1.3,280,14.5,0,Smoke RMK 113 (Smoke #16),ESAM,FALSE,NA,FALSE,FALSE,FALSE,FALSE,FALSE,FALSE,FALSE,FALSE,FALSE,2026-08-26T01:00:00Z,-121.664948,45.332108,1
2608260200,45.332096,-121.664909,9,10055,6,NA,2,22.7,34,842.5,NA,20,1.3,313,14.5,0,Smoke RMK 113 (Smoke #16),ESAM,FALSE,NA,FALSE,FALSE,FALSE,FALSE,FALSE,FALSE,FALSE,FALSE,FALSE,2026-08-26T02:00:00Z,-121.664948,45.332108,1
2608260300,45.332096,-121.664909,9,10055,2,NA,2,21.1,32,842.6,NA,21,1.3,285,14.5,0,Smoke RMK 113 (Smoke #16),ESAM,FALSE,NA,FALSE,FALSE,FALSE,FALSE,FALSE,FALSE,FALSE,FALSE,FALSE,2026-08-26T03:00:00Z,-121.664948,45.332108,1
2608260400,45.332096,-121.664909,9,10055,2,NA,2,20.6,27,842.7,NA,18,1.4,281,14.5,0,Smoke RMK 113 (Smoke #16),ESAM,FALSE,NA,FALSE,FALSE,FALSE,FALSE,FALSE,FALSE,FALSE,FALSE,FALSE,2026-08-26T04:00:00Z,-121.664948,45.332108,1
2608260500,45.332096,-121.664909,9,10055,1,NA,2,20.6,23,843,NA,16,1.4,269,14.5,0,Smoke RMK 113 (Smoke #16),ESAM,FALSE,NA,FALSE,FALSE,FALSE,FALSE,FALSE,FALSE,FALSE,FALSE,FALSE,2026-08-26T05:00:00Z,-121.664948,45.332108,1
2608260600,45.332096,-121.664909,9,10055,1,NA,2,19.2,26,843,NA,18,1,242,14.5,0,Smoke RMK 113 (Smoke #16),ESAM,FALSE,NA,FALSE,FALSE,FALSE,FALSE,FALSE,FALSE,FALSE,FALSE,FALSE,2026-08-26T06:00:00Z,-121.664948,45.332108,1
2608260700,45.332096,-121.664909,9,10055,1,NA,2,16.9,36,842.9,NA,26,0.7,257,14.5,0,Smoke RMK 113 (Smoke #16),ESAM,FALSE,NA,FALSE,FALSE,FALSE,FALSE,FALSE,FALSE,FALSE,FALSE,FALSE,2026-08-26T07:00:00Z,-121.664948,45.332108,1
2608260800,45.332096,-121.664909,9,10055,2,NA,2,17.6,37,842.9,NA,30,0.7,274,14.5,0,Smoke RMK 113 (Smoke #16),ESAM,FALSE,NA,FALSE,FALSE,FALSE,FALSE,FALSE,FALSE,FALSE,FALSE,FALSE,2026-08-26T08:00:00Z,-121.664948,45.332108,1
2608260900,45.332096,-121.664909,9,10055,3,NA,2,17.3,38,842.7,NA,31,0.6,237,14.5,0,Smoke RMK 113 (Smoke #16),ESAM,FALSE,NA,FALSE,FALSE,FALSE,FALSE,FALSE,FALSE,FALSE,FALSE,FALSE,2026-08-26T09:00:00Z,-121.664948,45.332108,1
2608261000,45.332096,-121.664909,9,10055,3,NA,2,16.3,36,842.3,NA,28,0.5,276,14.5,0,Smoke RMK 113 (Smoke #16),ESAM,FALSE,NA,FALSE,FALSE,FALSE,FALSE,FALSE,FALSE,FALSE,FALSE,FALSE,2026-08-26T10:00:00Z,-121.664948,45.332108,1
2608261100,45.332096,-121.664909,9,10055,5,NA,2,15.3,39,842.1,NA,31,0.5,3,14.5,0,Smoke RMK 113 (Smoke #16),ESAM,FALSE,NA,FALSE,FALSE,FALSE,FALSE,FALSE,FALSE,FALSE,FALSE,FALSE,2026-08-26T11:00:00Z,-121.664948,45.332108,1
2608261200,45.332096,-121.664909,9,10055,7,NA,2,14.8,43,841.9,NA,35,0.5,351,14.5,0,Smoke RMK 113 (Smoke #16),ESAM,FALSE,NA,FALSE,FALSE,FALSE,FALSE,FALSE,FALSE,FALSE,FALSE,FALSE,2026-08-26T12:00:00Z,-121.664948,45.332108,1
2608261300,45.332096,-121.664909,9,10055,5,NA,2,13.3,46,841.9,NA,36,0.5,307,14.5,0,Smoke RMK 113 (Smoke #16),ESAM,FALSE,NA,FALSE,FALSE,FALSE,FALSE,FALSE,FALSE,FALSE,FALSE,FALSE,2026-08-26T13:00:00Z,-121.664948,45.332108,1
2608261400,45.332054,-121.66494,9,10055,4,NA,2,14,43,841.9,NA,37,0.5,357,14.5,0,Smoke RMK 113 (Smoke #16),ESAM,FALSE,NA,FALSE,FALSE,FALSE,FALSE,FALSE,FALSE,FALSE,FALSE,FALSE,2026-08-26T14:00:00Z,-121.664948,45.332108,1
2608261500,45.332054,-121.66494,9,10055,3,NA,2,16.5,39,842.1,NA,36,0.7,192,14.5,0,Smoke RMK 113 (Smoke #16),ESAM,FALSE,NA,FALSE,FALSE,FALSE,FALSE,FALSE,FALSE,FALSE,FALSE,FALSE,2026-08-26T15:00:00Z,-121.664948,45.332108,1
2608261600,45.332054,-121.66494,9,10055,1,NA,2,20.4,28,842.1,NA,24,1,207,14.5,0,Smoke RMK 113 (Smoke #16),ESAM,FALSE,NA,FALSE,FALSE,FALSE,FALSE,FALSE,FALSE,FALSE,FALSE,FALSE,2026-08-26T16:00:00Z,-121.664948,45.332108,1
2608261700,45.332054,-121.66494,9,10055,1,NA,2,20.6,27,842.1,NA,20,1.3,225,14.5,0,Smoke RMK 113 (Smoke #16),ESAM,FALSE,NA,FALSE,FALSE,FALSE,FALSE,FALSE,FALSE,FALSE,FALSE,FALSE,2026-08-26T17:00:00Z,-121.664948,45.332108,1
2608261800,45.332054,-121.66494,9,10055,2,NA,2,21,27,842.2,NA,19,1.4,227,14.5,0,Smoke RMK 113 (Smoke #16),ESAM,FALSE,NA,FALSE,FALSE,FALSE,FALSE,FALSE,FALSE,FALSE,FALSE,FALSE,2026-08-26T18:00:00Z,-121.664948,45.332108,1
2608261900,45.332054,-121.66494,9,10055,10,NA,2,22.2,31,842.3,NA,24,1.5,230,14.5,0,Smoke RMK 113 (Smoke #16),ESAM,FALSE,NA,FALSE,FALSE,FALSE,FALSE,FALSE,FALSE,FALSE,FALSE,FALSE,2026-08-26T19:00:00Z,-121.664948,45.332108,1
2608262000,45.332054,-121.66494,9,10055,25,NA,2,22.8,33,842.2,NA,20,1.6,234,14.5,0,Smoke RMK 113 (Smoke #16),ESAM,FALSE,NA,FALSE,FALSE,FALSE,FALSE,FALSE,FALSE,FALSE,FALSE,FALSE,2026-08-26T20:00:00Z,-121.664948,45.332108,1
2608262100,45.332054,-121.66494,9,10055,30,NA,2,23.5,34,842.2,NA,19,1.4,236,14.5,0,Smoke RMK 113 (Smoke #16),ESAM,FALSE,NA,FALSE,FALSE,FALSE,FALSE,FALSE,FALSE,FALSE,FALSE,FALSE,2026-08-26T21:00:00Z,-121.664948,45.332108,1
2608262200,45.332054,-121.66494,9,10055,42,NA,2,23.3,35,842.1,NA,20,1.6,246,14.5,0,Smoke RMK 113 (Smoke #16),ESAM,FALSE,NA,FALSE,FALSE,FALSE,FALSE,FALSE,FALSE,FALSE,FALSE,FALSE,2026-08-26T22:00:00Z,-121.664948,45.332108,1
2608262300,45.332054,-121.66494,9,10055,37,NA,2,22.8,38,841.7,NA,22,1.6,265,14.5,0,Smoke RMK 113 (Smoke #16),ESAM,FALSE,NA,FALSE,FALSE,FALSE,FALSE,FALSE,FALSE,FALSE,FALSE,FALSE,2026-08-26T23:00:00Z,-121.664948,45.332108,1
2608270000,45.332054,-121.66494,9,10055,9,NA,2,21.5,42,841.5,NA,25,1.8,243,14.5,0,Smoke RMK 113 (Smoke #16),ESAM,FALSE,NA,FALSE,FALSE,FALSE,FALSE,FALSE,FALSE,FALSE,FALSE,FALSE,2026-08-27T00:00:00Z,-121.664948,45.332108,1
2608270100,45.332054,-121.66494,9,10055,2,NA,2,21,36,841.4,NA,22,1.9,282,14.5,0,Smoke RMK 113 (Smoke #16),ESAM,FALSE,NA,FALSE,FALSE,FALSE,FALSE,FALSE,FALSE,FALSE,FALSE,FALSE,2026-08-27T01:00:00Z,-121.664948,45.332108,1
2608270200,45.332054,-121.66494,9,10055,2,NA,2,19.5,40,841.1,NA,25,2,275,14.5,0,Smoke RMK 113 (Smoke #16),ESAM,FALSE,NA,FALSE,FALSE,FALSE,FALSE,FALSE,FALSE,FALSE,FALSE,FALSE,2026-08-27T02:00:00Z,-121.664948,45.332108,1
2608270300,45.332054,-121.66494,9,10055,3,NA,2,17.6,53,841.1,NA,39,2.1,268,14.5,0,Smoke RMK 113 (Smoke #16),ESAM,FALSE,NA,FALSE,FALSE,FALSE,FALSE,FALSE,FALSE,FALSE,FALSE,FALSE,2026-08-27T03:00:00Z,-121.664948,45.332108,1
2608270400,45.332054,-121.66494,9,10055,3,NA,2,17.3,55,841.1,NA,44,2.1,282,14.5,0,Smoke RMK 113 (Smoke #16),ESAM,FALSE,NA,FALSE,FALSE,FALSE,FALSE,FALSE,FALSE,FALSE,FALSE,FALSE,2026-08-27T04:00:00Z,-121.664948,45.332108,1
2608270500,45.332054,-121.66494,9,10055,3,NA,2,17,57,840.9,NA,48,2.1,243,14.5,0,Smoke RMK 113 (Smoke #16),ESAM,FALSE,NA,FALSE,FALSE,FALSE,FALSE,FALSE,FALSE,FALSE,FALSE,FALSE,2026-08-27T05:00:00Z,-121.664948,45.332108,1
2608270600,45.332054,-121.66494,9,10055,2,NA,2,16.7,60,841.1,NA,48,1.9,241,14.4,0,Smoke RMK 113 (Smoke #16),ESAM,FALSE,NA,FALSE,FALSE,FALSE,FALSE,FALSE,FALSE,FALSE,FALSE,FALSE,2026-08-27T06:00:00Z,-121.664948,45.332108,1
2608270700,45.332054,-121.66494,9,10055,1,NA,2,16.2,66,841.3,NA,48,1.6,267,14.4,0,Smoke RMK 113 (Smoke #16),ESAM,FALSE,NA,FALSE,FALSE,FALSE,FALSE,FALSE,FALSE,FALSE,FALSE,FALSE,2026-08-27T07:00:00Z,-121.664948,45.332108,1
2608270800,45.332054,-121.66494,9,10055,1,NA,2,15.9,68,841.1,NA,48,1.5,270,14.4,0,Smoke RMK 113 (Smoke #16),ESAM,FALSE,NA,FALSE,FALSE,FALSE,FALSE,FALSE,FALSE,FALSE,FALSE,FALSE,2026-08-27T08:00:00Z,-121.664948,45.332108,1
2608270900,45.332054,-121.66494,9,10055,1,NA,2,16.7,62,840.7,NA,48,1.4,283,14.4,0,Smoke RMK 113 (Smoke #16),ESAM,FALSE,NA,FALSE,FALSE,FALSE,FALSE,FALSE,FALSE,FALSE,FALSE,FALSE,2026-08-27T09:00:00Z,-121.664948,45.332108,1
2608271000,45.332054,-121.66494,9,10055,1,NA,2,15.9,66,840.7,NA,48,1.1,269,14.4,0,Smoke RMK 113 (Smoke #16),ESAM,FALSE,NA,FALSE,FALSE,FALSE,FALSE,FALSE,FALSE,FALSE,FALSE,FALSE,2026-08-27T10:00:00Z,-121.664948,45.332108,1
2608271100,45.332054,-121.66494,9,10055,1,NA,2,15.4,71,840.6,NA,48,1.3,265,14.4,0,Smoke RMK 113 (Smoke #16),ESAM,FALSE,NA,FALSE,FALSE,FALSE,FALSE,FALSE,FALSE,FALSE,FALSE,FALSE,2026-08-27T11:00:00Z,-121.664948,45.332108,1
2608271200,45.332054,-121.66494,9,10055,1,NA,2,14.3,77,840.7,NA,49,1.5,287,14.4,0,Smoke RMK 113 (Smoke #16),ESAM,FALSE,NA,FALSE,FALSE,FALSE,FALSE,FALSE,FALSE,FALSE,FALSE,FALSE,2026-08-27T12:00:00Z,-121.664948,45.332108,1
2608271300,45.332108,-121.664948,9,10055,1,NA,2,13.4,79,840.6,NA,49,1.4,267,14.4,0,Smoke RMK 113 (Smoke #16),ESAM,FALSE,NA,FALSE,FALSE,FALSE,FALSE,FALSE,FALSE,FALSE,FALSE,FALSE,2026-08-27T13:00:00Z,-121.664948,45.332108,1
2608271400,45.332108,-121.664948,9,10055,1,NA,2,13.4,77,840.7,NA,49,1.5,241,14.4,0,Smoke RMK 113 (Smoke #16),ESAM,FALSE,NA,FALSE,FALSE,FALSE,FALSE,FALSE,FALSE,FALSE,FALSE,FALSE,2026-08-27T14:00:00Z,-121.664948,45.332108,1
2608271500,45.332108,-121.664948,9,10055,1,NA,2,13.5,73,840.9,NA,48,1.5,239,14.4,0,Smoke RMK 113 (Smoke #16),ESAM,FALSE,NA,FALSE,FALSE,FALSE,FALSE,FALSE,FALSE,FALSE,FALSE,FALSE,2026-08-27T15:00:00Z,-121.664948,45.332108,1
2608271600,45.332108,-121.664948,9,10055,1,NA,2,13.7,69,840.9,NA,48,1.8,233,14.4,0,Smoke RMK 113 (Smoke #16),ESAM,FALSE,NA,FALSE,FALSE,FALSE,FALSE,FALSE,FALSE,FALSE,FALSE,FALSE,2026-08-27T16:00:00Z,-121.664948,45.332108,1
2608271700,45.332108,-121.664948,9,10055,1,NA,2,13.6,68,841.1,NA,48,2.1,233,14.4,0,Smoke RMK 113 (Smoke #16),ESAM,FALSE,NA,FALSE,FALSE,FALSE,FALSE,FALSE,FALSE,FALSE,FALSE,FALSE,2026-08-27T17:00:00Z,-121.664948,45.332108,1
2608271800,45.332108,-121.664948,9,10055,1,NA,2,14.1,65,841.4,NA,48,1.9,226,14.4,0,Smoke RMK 113 (Smoke #16),ESAM,FALSE,NA,FALSE,FALSE,FALSE,FALSE,FALSE,FALSE,FALSE,FALSE,FALSE,2026-08-27T18:00:00Z,-121.664948,45.332108,1
2608271900,45.332108,-121.664948,9,10055,1,NA,2,15.7,55,841.7,NA,44,1.9,220,14.5,0,Smoke RMK 113 (Smoke #16),ESAM,FALSE,NA,FALSE,FALSE,FALSE,FALSE,FALSE,FALSE,FALSE,FALSE,FALSE,2026-08-27T19:00:00Z,-121.664948,45.332108,1
2608272000,45.332108,-121.664948,9,10055,1,NA,2,17.2,46,841.4,NA,32,1.9,221,14.5,0,Smoke RMK 113 (Smoke #16),ESAM,FALSE,NA,FALSE,FALSE,FALSE,FALSE,FALSE,FALSE,FALSE,FALSE,FALSE,2026-08-27T20:00:00Z,-121.664948,45.332108,1
2608272100,45.332108,-121.664948,9,10055,1,NA,2,18.1,39,841.5,NA,23,1.9,229,14.5,0,Smoke RMK 113 (Smoke #16),ESAM,FALSE,NA,FALSE,FALSE,FALSE,FALSE,FALSE,FALSE,FALSE,FALSE,FALSE,2026-08-27T21:00:00Z,-121.664948,45.332108,1
2608272200,45.332108,-121.664948,9,10055,1,NA,2,18.2,46,841.4,NA,28,2.1,229,14.5,0,Smoke RMK 113 (Smoke #16),ESAM,FALSE,NA,FALSE,FALSE,FALSE,FALSE,FALSE,FALSE,FALSE,FALSE,FALSE,2026-08-27T22:00:00Z,-121.664948,45.332108,1
2608272300,45.332108,-121.664948,9,10055,1,NA,2,18.5,44,841.3,NA,28,1.9,232,14.5,0,Smoke RMK 113 (Smoke #16),ESAM,FALSE,NA,FALSE,FALSE,FALSE,FALSE,FALSE,FALSE,FALSE,FALSE,FALSE,2026-08-27T23:00:00Z,-121.664948,45.332108,1
2608280000,45.332108,-121.664948,9,10055,1,NA,2,19,39,840.9,NA,24,1.9,231,14.5,0,Smoke RMK 113 (Smoke #16),ESAM,FALSE,NA,FALSE,FALSE,FALSE,FALSE,FALSE,FALSE,FALSE,FALSE,FALSE,2026-08-28T00:00:00Z,-121.664948,45.332108,1
2608280100,45.332108,-121.664948,9,10055,1,NA,2,18.6,34,840.6,NA,20,1.7,242,14.5,0,Smoke RMK 113 (Smoke #16),ESAM,FALSE,NA,FALSE,FALSE,FALSE,FALSE,FALSE,FALSE,FALSE,FALSE,FALSE,2026-08-28T01:00:00Z,-121.664948,45.332108,1
2608280200,45.332108,-121.664948,9,10055,1,NA,2,17.9,32,840.6,NA,18,1.8,239,14.5,0,Smoke RMK 113 (Smoke #16),ESAM,FALSE,NA,FALSE,FALSE,FALSE,FALSE,FALSE,FALSE,FALSE,FALSE,FALSE,2026-08-28T02:00:00Z,-121.664948,45.332108,1
2608280300,45.332108,-121.664948,9,10055,1,NA,2,16,36,840.6,NA,24,1.6,236,14.5,0,Smoke RMK 113 (Smoke #16),ESAM,FALSE,NA,FALSE,FALSE,FALSE,FALSE,FALSE,FALSE,FALSE,FALSE,FALSE,2026-08-28T03:00:00Z,-121.664948,45.332108,1
2608280400,45.332108,-121.664948,9,10055,1,NA,2,13.5,54,840.9,NA,40,1.3,341,14.4,0,Smoke RMK 113 (Smoke #16),ESAM,FALSE,NA,FALSE,FALSE,FALSE,FALSE,FALSE,FALSE,FALSE,FALSE,FALSE,2026-08-28T04:00:00Z,-121.664948,45.332108,1
2608280500,45.332108,-121.664948,9,10055,2,NA,2,12.6,61,841.3,NA,42,1.5,312,14.4,0,Smoke RMK 113 (Smoke #16),ESAM,FALSE,NA,FALSE,FALSE,FALSE,FALSE,FALSE,FALSE,FALSE,FALSE,FALSE,2026-08-28T05:00:00Z,-121.664948,45.332108,1
2608280600,45.332108,-121.664948,9,10055,3,NA,2,9.6,81,841.4,NA,48,1.1,259,14.4,0,Smoke RMK 113 (Smoke #16),ESAM,FALSE,NA,FALSE,FALSE,FALSE,FALSE,FALSE,FALSE,FALSE,FALSE,FALSE,2026-08-28T06:00:00Z,-121.664948,45.332108,1
2608280700,45.332108,-121.664948,9,10055,1,NA,2,7.5,79,841.4,NA,47,0.7,240,14.4,0,Smoke RMK 113 (Smoke #16),ESAM,FALSE,NA,FALSE,FALSE,FALSE,FALSE,FALSE,FALSE,FALSE,FALSE,FALSE,2026-08-28T07:00:00Z,-121.664948,45.332108,1
2608280800,45.332108,-121.664948,9,10055,1,NA,2,7.3,68,841.3,NA,47,0.4,203,14.4,0,Smoke RMK 113 (Smoke #16),ESAM,FALSE,NA,FALSE,FALSE,FALSE,FALSE,FALSE,FALSE,FALSE,FALSE,FALSE,2026-08-28T08:00:00Z,-121.664948,45.332108,1
2608280900,45.332108,-121.664948,9,10055,1,NA,2,7.3,59,841.1,NA,47,0.7,231,14.4,0,Smoke RMK 113 (Smoke #16),ESAM,FALSE,NA,FALSE,FALSE,FALSE,FALSE,FALSE,FALSE,FALSE,FALSE,FALSE,2026-08-28T09:00:00Z,-121.664948,45.332108,1
2608281000,45.332108,-121.664948,9,10055,1,NA,2,6.7,60,840.9,NA,47,0.6,244,14.4,0,Smoke RMK 113 (Smoke #16),ESAM,FALSE,NA,FALSE,FALSE,FALSE,FALSE,FALSE,FALSE,FALSE,FALSE,FALSE,2026-08-28T10:00:00Z,-121.664948,45.332108,1
2608281100,45.332108,-121.664948,9,10055,1,NA,2,6.5,61,840.7,NA,47,0.5,251,14.4,0,Smoke RMK 113 (Smoke #16),ESAM,FALSE,NA,FALSE,FALSE,FALSE,FALSE,FALSE,FALSE,FALSE,FALSE,FALSE,2026-08-28T11:00:00Z,-121.664948,45.332108,1
2608281200,45.332108,-121.664948,9,10055,1,NA,2,6.3,62,840.7,NA,47,0.6,243,14.4,0,Smoke RMK 113 (Smoke #16),ESAM,FALSE,NA,FALSE,FALSE,FALSE,FALSE,FALSE,FALSE,FALSE,FALSE,FALSE,2026-08-28T12:00:00Z,-121.664948,45.332108,1
2608281300,45.332115,-121.664932,9,10055,1,NA,2,6.1,65,840.6,NA,47,0.5,254,14.4,0,Smoke RMK 113 (Smoke #16),ESAM,FALSE,NA,FALSE,FALSE,FALSE,FALSE,FALSE,FALSE,FALSE,FALSE,FALSE,2026-08-28T13:00:00Z,-121.664948,45.332108,1
2608281400,45.332115,-121.664932,9,10055,2,NA,2,6.8,63,840.6,NA,47,0.6,244,14.4,0,Smoke RMK 113 (Smoke #16),ESAM,FALSE,NA,FALSE,FALSE,FALSE,FALSE,FALSE,FALSE,FALSE,FALSE,FALSE,2026-08-28T14:00:00Z,-121.664948,45.332108,1
2608281500,45.332115,-121.664932,9,10055,3,NA,2,8.6,65,840.9,NA,48,0.6,266,14.4,0,Smoke RMK 113 (Smoke #16),ESAM,FALSE,NA,FALSE,FALSE,FALSE,FALSE,FALSE,FALSE,FALSE,FALSE,FALSE,2026-08-28T15:00:00Z,-121.664948,45.332108,1
2608281600,45.332115,-121.664932,9,10055,3,NA,2,11.6,60,840.9,NA,47,0.6,284,14.4,0,Smoke RMK 113 (Smoke #16),ESAM,FALSE,NA,FALSE,FALSE,FALSE,FALSE,FALSE,FALSE,FALSE,FALSE,FALSE,2026-08-28T16:00:00Z,-121.664948,45.332108,1
2608281700,45.332115,-121.664932,9,10055,2,NA,2,16.2,52,840.6,NA,46,1,278,14.4,0,Smoke RMK 113 (Smoke #16),ESAM,FALSE,NA,FALSE,FALSE,FALSE,FALSE,FALSE,FALSE,FALSE,FALSE,FALSE,2026-08-28T17:00:00Z,-121.664948,45.332108,1
2608281800,45.332115,-121.664932,9,10055,1,NA,2,16.8,59,840.6,NA,48,1.3,336,14.4,0,Smoke RMK 113 (Smoke #16),ESAM,FALSE,NA,FALSE,FALSE,FALSE,FALSE,FALSE,FALSE,FALSE,FALSE,FALSE,2026-08-28T18:00:00Z,-121.664948,45.332108,1
2608281900,45.332115,-121.664932,9,10055,1,NA,2,19.1,45,840.5,NA,38,1.4,274,14.5,0,Smoke RMK 113 (Smoke #16),ESAM,FALSE,NA,FALSE,FALSE,FALSE,FALSE,FALSE,FALSE,FALSE,FALSE,FALSE,2026-08-28T19:00:00Z,-121.664948,45.332108,1
2608282000,45.332115,-121.664932,9,10055,2,NA,2,20.1,40,840.2,NA,26,1.4,236,14.5,0,Smoke RMK 113 (Smoke #16),ESAM,FALSE,NA,FALSE,FALSE,FALSE,FALSE,FALSE,FALSE,FALSE,FALSE,FALSE,2026-08-28T20:00:00Z,-121.664948,45.332108,1
2608282100,45.332115,-121.664932,9,10055,5,NA,2,20.5,42,839.9,NA,24,1.7,235,14.5,0,Smoke RMK 113 (Smoke #16),ESAM,FALSE,NA,FALSE,FALSE,FALSE,FALSE,FALSE,FALSE,FALSE,FALSE,FALSE,2026-08-28T21:00:00Z,-121.664948,45.332108,1
2608282200,45.332115,-121.664932,9,10055,6,NA,2,20,44,839.7,NA,25,1.7,228,14.5,0,Smoke RMK 113 (Smoke #16),ESAM,FALSE,NA,FALSE,FALSE,FALSE,FALSE,FALSE,FALSE,FALSE,FALSE,FALSE,2026-08-28T22:00:00Z,-121.664948,45.332108,1
2608282300,45.332115,-121.664932,9,10055,2,NA,2,20.1,40,839.4,NA,24,1.6,232,14.5,0,Smoke RMK 113 (Smoke #16),ESAM,FALSE,NA,FALSE,FALSE,FALSE,FALSE,FALSE,FALSE,FALSE,FALSE,FALSE,2026-08-28T23:00:00Z,-121.664948,45.332108,1
2608290000,45.332115,-121.664932,9,10055,1,NA,2,19.9,39,839.3,NA,23,1.4,240,14.5,0,Smoke RMK 113 (Smoke #16),ESAM,FALSE,NA,FALSE,FALSE,FALSE,FALSE,FALSE,FALSE,FALSE,FALSE,FALSE,2026-08-29T00:00:00Z,-121.664948,45.332108,1
2608290100,45.332115,-121.664932,9,10055,1,NA,2,18.2,42,839.1,NA,24,1.3,252,14.5,0,Smoke RMK 113 (Smoke #16),ESAM,FALSE,NA,FALSE,FALSE,FALSE,FALSE,FALSE,FALSE,FALSE,FALSE,FALSE,2026-08-29T01:00:00Z,-121.664948,45.332108,1
2608290200,45.332115,-121.664932,9,10055,1,NA,2,16.7,35,838.7,NA,20,1.6,252,14.5,0,Smoke RMK 113 (Smoke #16),ESAM,FALSE,NA,FALSE,FALSE,FALSE,FALSE,FALSE,FALSE,FALSE,FALSE,FALSE,2026-08-29T02:00:00Z,-121.664948,45.332108,1
2608290300,45.332115,-121.664932,9,10055,1,NA,2,15,37,838.6,NA,25,1.7,233,14.5,0,Smoke RMK 113 (Smoke #16),ESAM,FALSE,NA,FALSE,FALSE,FALSE,FALSE,FALSE,FALSE,FALSE,FALSE,FALSE,2026-08-29T03:00:00Z,-121.664948,45.332108,1
2608290400,45.332115,-121.664932,9,10055,1,NA,2,13.8,43,838.6,NA,34,2,224,14.5,0,Smoke RMK 113 (Smoke #16),ESAM,FALSE,NA,FALSE,FALSE,FALSE,FALSE,FALSE,FALSE,FALSE,FALSE,FALSE,2026-08-29T04:00:00Z,-121.664948,45.332108,1
2608290500,45.332115,-121.664932,9,10055,2,NA,2,12.8,54,838.5,NA,42,2.2,221,14.4,0,Smoke RMK 113 (Smoke #16),ESAM,FALSE,NA,FALSE,FALSE,FALSE,FALSE,FALSE,FALSE,FALSE,FALSE,FALSE,2026-08-29T05:00:00Z,-121.664948,45.332108,1
2608290600,45.332115,-121.664932,9,10055,3,NA,2,12.8,48,838.3,NA,39,2.1,225,14.5,0,Smoke RMK 113 (Smoke #16),ESAM,FALSE,NA,FALSE,FALSE,FALSE,FALSE,FALSE,FALSE,FALSE,FALSE,FALSE,2026-08-29T06:00:00Z,-121.664948,45.332108,1
2608290700,45.332115,-121.664932,9,10055,3,NA,2,11.5,60,838.6,NA,45,2.7,235,14.4,0,Smoke RMK 113 (Smoke #16),ESAM,FALSE,NA,FALSE,FALSE,FALSE,FALSE,FALSE,FALSE,FALSE,FALSE,FALSE,2026-08-29T07:00:00Z,-121.664948,45.332108,1
2608290800,45.332115,-121.664932,9,10055,2,NA,2,10.7,71,838.7,NA,48,2.7,239,14.4,0,Smoke RMK 113 (Smoke #16),ESAM,FALSE,NA,FALSE,FALSE,FALSE,FALSE,FALSE,FALSE,FALSE,FALSE,FALSE,2026-08-29T08:00:00Z,-121.664948,45.332108,1
2608290900,45.332115,-121.664932,9,10055,2,NA,2,9.9,72,838.7,NA,48,3,230,14.4,0,Smoke RMK 113 (Smoke #16),ESAM,FALSE,NA,FALSE,FALSE,FALSE,FALSE,FALSE,FALSE,FALSE,FALSE,FALSE,2026-08-29T09:00:00Z,-121.664948,45.332108,1
2608291000,45.332115,-121.664932,9,10055,2,NA,2,9.5,72,838.7,NA,48,3.1,229,14.4,0,Smoke RMK 113 (Smoke #16),ESAM,FALSE,NA,FALSE,FALSE,FALSE,FALSE,FALSE,FALSE,FALSE,FALSE,FALSE,2026-08-29T10:00:00Z,-121.664948,45.332108,1
2608291100,45.332115,-121.664932,9,10055,2,NA,2,8.7,73,838.5,NA,48,2.4,239,14.4,0,Smoke RMK 113 (Smoke #16),ESAM,FALSE,NA,FALSE,FALSE,FALSE,FALSE,FALSE,FALSE,FALSE,FALSE,FALSE,2026-08-29T11:00:00Z,-121.664948,45.332108,1
2608291200,45.332123,-121.664955,9,10055,2,NA,2,7.3,74,838.5,NA,47,2.7,236,14.4,0,Smoke RMK 113 (Smoke #16),ESAM,FALSE,NA,FALSE,FALSE,FALSE,FALSE,FALSE,FALSE,FALSE,FALSE,FALSE,2026-08-29T12:00:00Z,-121.664948,45.332108,1
2608291300,45.332123,-121.664955,9,10055,3,NA,2,7.1,74,838.3,NA,48,2.2,232,14.4,0,Smoke RMK 113 (Smoke #16),ESAM,FALSE,NA,FALSE,FALSE,FALSE,FALSE,FALSE,FALSE,FALSE,FALSE,FALSE,2026-08-29T13:00:00Z,-121.664948,45.332108,1
2608291400,45.332123,-121.664955,9,10055,1,NA,2,7.3,81,838.3,NA,49,2.3,226,14.4,0,Smoke RMK 113 (Smoke #16),ESAM,FALSE,NA,FALSE,FALSE,FALSE,FALSE,FALSE,FALSE,FALSE,FALSE,FALSE,2026-08-29T14:00:00Z,-121.664948,45.332108,1
2608291500,45.332123,-121.664955,9,10055,0,NA,2,7.2,86,838.6,NA,49,2.3,228,14.3,0,Smoke RMK 113 (Smoke #16),ESAM,FALSE,NA,FALSE,FALSE,FALSE,FALSE,FALSE,FALSE,FALSE,FALSE,FALSE,2026-08-29T15:00:00Z,-121.664948,45.332108,1
2608291600,45.332123,-121.664955,9,10055,1,NA,2,7.7,86,838.9,NA,49,2.7,227,14.4,0,Smoke RMK 113 (Smoke #16),ESAM,FALSE,NA,FALSE,FALSE,FALSE,FALSE,FALSE,FALSE,FALSE,FALSE,FALSE,2026-08-29T16:00:00Z,-121.664948,45.332108,1
2608291700,45.332123,-121.664955,9,10055,2,NA,2,7.5,80,839.1,NA,48,2.9,244,14.4,0,Smoke RMK 113 (Smoke #16),ESAM,FALSE,NA,FALSE,FALSE,FALSE,FALSE,FALSE,FALSE,FALSE,FALSE,FALSE,2026-08-29T17:00:00Z,-121.664948,45.332108,1
2608291800,45.332123,-121.664955,9,10055,1,NA,2,7.6,83,839.8,NA,49,2.6,241,14.4,0,Smoke RMK 113 (Smoke #16),ESAM,FALSE,NA,FALSE,FALSE,FALSE,FALSE,FALSE,FALSE,FALSE,FALSE,FALSE,2026-08-29T18:00:00Z,-121.664948,45.332108,1
2608291900,45.332123,-121.664955,9,10055,1,NA,2,9,75,839.9,NA,48,2.7,237,14.4,0,Smoke RMK 113 (Smoke #16),ESAM,FALSE,NA,FALSE,FALSE,FALSE,FALSE,FALSE,FALSE,FALSE,FALSE,FALSE,2026-08-29T19:00:00Z,-121.664948,45.332108,1
2608292000,45.332123,-121.664955,9,10055,2,NA,2,10.2,66,840.3,NA,45,2.9,241,14.5,0,Smoke RMK 113 (Smoke #16),ESAM,FALSE,NA,FALSE,FALSE,FALSE,FALSE,FALSE,FALSE,FALSE,FALSE,FALSE,2026-08-29T20:00:00Z,-121.664948,45.332108,1
2608292100,45.332123,-121.664955,9,10055,2,NA,2,10.3,65,840.5,NA,46,2.7,242,14.5,0,Smoke RMK 113 (Smoke #16),ESAM,FALSE,NA,FALSE,FALSE,FALSE,FALSE,FALSE,FALSE,FALSE,FALSE,FALSE,2026-08-29T21:00:00Z,-121.664948,45.332108,1
2608292200,45.332123,-121.664955,9,10055,2,NA,2,10.6,65,840.6,NA,47,3,235,14.5,0,Smoke RMK 113 (Smoke #16),ESAM,FALSE,NA,FALSE,FALSE,FALSE,FALSE,FALSE,FALSE,FALSE,FALSE,FALSE,2026-08-29T22:00:00Z,-121.664948,45.332108,1
2608292300,45.332123,-121.664955,9,10055,2,NA,2,10.9,66,840.7,NA,45,3,229,14.5,0,Smoke RMK 113 (Smoke #16),ESAM,FALSE,NA,FALSE,FALSE,FALSE,FALSE,FALSE,FALSE,FALSE,FALSE,FALSE,2026-08-29T23:00:00Z,-121.664948,45.332108,1
2608300000,45.332123,-121.664955,9,10055,2,NA,2,10.6,67,840.6,NA,47,2.6,234,14.5,0,Smoke RMK 113 (Smoke #16),ESAM,FALSE,NA,FALSE,FALSE,FALSE,FALSE,FALSE,FALSE,FALSE,FALSE,FALSE,2026-08-30T00:00:00Z,-121.664948,45.332108,1
2608300100,45.332123,-121.664955,9,10055,2,NA,2,10.2,68,840.7,NA,48,2.4,242,14.4,0,Smoke RMK 113 (Smoke #16),ESAM,FALSE,NA,FALSE,FALSE,FALSE,FALSE,FALSE,FALSE,FALSE,FALSE,FALSE,2026-08-30T01:00:00Z,-121.664948,45.332108,1
2608300200,45.332123,-121.664955,9,10055,2,NA,2,9.5,70,840.9,NA,48,2.7,234,14.4,0,Smoke RMK 113 (Smoke #16),ESAM,FALSE,NA,FALSE,FALSE,FALSE,FALSE,FALSE,FALSE,FALSE,FALSE,FALSE,2026-08-30T02:00:00Z,-121.664948,45.332108,1
2608300300,45.332123,-121.664955,9,10055,2,NA,2,9.1,69,840.7,NA,48,2.2,231,14.4,0,Smoke RMK 113 (Smoke #16),ESAM,FALSE,NA,FALSE,FALSE,FALSE,FALSE,FALSE,FALSE,FALSE,FALSE,FALSE,2026-08-30T03:00:00Z,-121.664948,45.332108,1
2608300400,45.332123,-121.664955,9,10055,3,NA,2,7.2,79,840.9,NA,48,1.1,259,14.4,0,Smoke RMK 113 (Smoke #16),ESAM,FALSE,NA,FALSE,FALSE,FALSE,FALSE,FALSE,FALSE,FALSE,FALSE,FALSE,2026-08-30T04:00:00Z,-121.664948,45.332108,1
2608300500,45.332123,-121.664955,9,10055,2,NA,2,7.4,78,841.3,NA,48,1.6,235,14.4,0,Smoke RMK 113 (Smoke #16),ESAM,FALSE,NA,FALSE,FALSE,FALSE,FALSE,FALSE,FALSE,FALSE,FALSE,FALSE,2026-08-30T05:00:00Z,-121.664948,45.332108,1
2608300600,45.332123,-121.664955,9,10055,2,NA,2,5.5,78,841,NA,48,0.9,262,14.4,0,Smoke RMK 113 (Smoke #16),ESAM,FALSE,NA,FALSE,FALSE,FALSE,FALSE,FALSE,FALSE,FALSE,FALSE,FALSE,2026-08-30T06:00:00Z,-121.664948,45.332108,1
2608300700,45.332123,-121.664955,9,10055,2,NA,2,3.5,80,840.9,NA,48,0.6,269,14.4,0,Smoke RMK 113 (Smoke #16),ESAM,FALSE,NA,FALSE,FALSE,FALSE,FALSE,FALSE,FALSE,FALSE,FALSE,FALSE,2026-08-30T07:00:00Z,-121.664948,45.332108,1
2608300800,45.332123,-121.664955,9,10055,2,NA,2,2.6,83,841,NA,49,0.6,232,14.4,0,Smoke RMK 113 (Smoke #16),ESAM,FALSE,NA,FALSE,FALSE,FALSE,FALSE,FALSE,FALSE,FALSE,FALSE,FALSE,2026-08-30T08:00:00Z,-121.664948,45.332108,1
2608300900,45.332123,-121.664955,9,10055,2,NA,2,2.1,84,841,NA,48,0.4,293,14.4,0,Smoke RMK 113 (Smoke #16),ESAM,FALSE,NA,FALSE,FALSE,FALSE,FALSE,FALSE,FALSE,FALSE,FALSE,FALSE,2026-08-30T09:00:00Z,-121.664948,45.332108,1
2608301000,45.332123,-121.664955,9,10055,1,NA,2,2.1,82,840.9,NA,48,0.4,314,14.4,0,Smoke RMK 113 (Smoke #16),ESAM,FALSE,NA,FALSE,FALSE,FALSE,FALSE,FALSE,FALSE,FALSE,FALSE,FALSE,2026-08-30T10:00:00Z,-121.664948,45.332108,1
2608301100,45.332123,-121.664955,9,10055,1,NA,2,2.3,79,840.9,NA,48,0.4,309,14.4,0,Smoke RMK 113 (Smoke #16),ESAM,FALSE,NA,FALSE,FALSE,FALSE,FALSE,FALSE,FALSE,FALSE,FALSE,FALSE,2026-08-30T11:00:00Z,-121.664948,45.332108,1
2608301200,45.332096,-121.66497,9,10055,2,NA,2,2.1,79,840.9,NA,49,0.4,308,14.4,0,Smoke RMK 113 (Smoke #16),ESAM,FALSE,NA,FALSE,FALSE,FALSE,FALSE,FALSE,FALSE,FALSE,FALSE,FALSE,2026-08-30T12:00:00Z,-121.664948,45.332108,1
2608301300,45.332096,-121.66497,9,10055,1,NA,2,2.5,76,840.9,NA,48,0.4,264,14.4,0,Smoke RMK 113 (Smoke #16),ESAM,FALSE,NA,FALSE,FALSE,FALSE,FALSE,FALSE,FALSE,FALSE,FALSE,FALSE,2026-08-30T13:00:00Z,-121.664948,45.332108,1
2608301400,45.332096,-121.66497,9,10055,1,NA,2,4.1,70,841.1,NA,48,0.6,232,14.4,0,Smoke RMK 113 (Smoke #16),ESAM,FALSE,NA,FALSE,FALSE,FALSE,FALSE,FALSE,FALSE,FALSE,FALSE,FALSE,2026-08-30T14:00:00Z,-121.664948,45.332108,1
2608301500,45.332096,-121.66497,9,10055,1,NA,2,5.5,68,841.4,NA,48,0.5,285,14.4,0,Smoke RMK 113 (Smoke #16),ESAM,FALSE,NA,FALSE,FALSE,FALSE,FALSE,FALSE,FALSE,FALSE,FALSE,FALSE,2026-08-30T15:00:00Z,-121.664948,45.332108,1
2608301600,45.332096,-121.66497,9,10055,2,NA,2,8.3,63,841.5,NA,48,0.6,216,14.4,0,Smoke RMK 113 (Smoke #16),ESAM,FALSE,NA,FALSE,FALSE,FALSE,FALSE,FALSE,FALSE,FALSE,FALSE,FALSE,2026-08-30T16:00:00Z,-121.664948,45.332108,1
2608301700,45.332096,-121.66497,9,10055,2,NA,2,13.1,52,841.4,NA,46,0.9,256,14.4,0,Smoke RMK 113 (Smoke #16),ESAM,FALSE,NA,FALSE,FALSE,FALSE,FALSE,FALSE,FALSE,FALSE,FALSE,FALSE,2026-08-30T17:00:00Z,-121.664948,45.332108,1
2608301800,45.332096,-121.66497,9,10055,2,NA,2,14,48,841.4,NA,43,1.1,332,14.5,0,Smoke RMK 113 (Smoke #16),ESAM,FALSE,NA,FALSE,FALSE,FALSE,FALSE,FALSE,FALSE,FALSE,FALSE,FALSE,2026-08-30T18:00:00Z,-121.664948,45.332108,1
2608301900,45.332096,-121.66497,9,10055,2,NA,2,16.2,49,841.7,NA,44,1.2,269,14.5,0,Smoke RMK 113 (Smoke #16),ESAM,FALSE,NA,FALSE,FALSE,FALSE,FALSE,FALSE,FALSE,FALSE,FALSE,FALSE,2026-08-30T19:00:00Z,-121.664948,45.332108,1
2608302000,45.332096,-121.66497,9,10055,2,NA,2,18.3,47,841.4,NA,34,1.4,320,14.5,0,Smoke RMK 113 (Smoke #16),ESAM,FALSE,NA,FALSE,FALSE,FALSE,FALSE,FALSE,FALSE,FALSE,FALSE,FALSE,2026-08-30T20:00:00Z,-121.664948,45.332108,1
2608302100,45.332096,-121.66497,9,10055,1,NA,2,19,42,841.3,NA,26,1.4,232,14.5,0,Smoke RMK 113 (Smoke #16),ESAM,FALSE,NA,FALSE,FALSE,FALSE,FALSE,FALSE,FALSE,FALSE,FALSE,FALSE,2026-08-30T21:00:00Z,-121.664948,45.332108,1
2608302200,45.332096,-121.66497,9,10055,2,NA,2,20.8,41,841.1,NA,25,1.3,251,14.5,0,Smoke RMK 113 (Smoke #16),ESAM,FALSE,NA,FALSE,FALSE,FALSE,FALSE,FALSE,FALSE,FALSE,FALSE,FALSE,2026-08-30T22:00:00Z,-121.664948,45.332108,1
2608302300,45.332096,-121.66497,9,10055,2,NA,2,21.5,40,840.9,NA,24,1.3,270,14.5,0,Smoke RMK 113 (Smoke #16),ESAM,FALSE,NA,FALSE,FALSE,FALSE,FALSE,FALSE,FALSE,FALSE,FALSE,FALSE,2026-08-30T23:00:00Z,-121.664948,45.332108,1
2608310000,45.332096,-121.66497,9,10055,2,NA,2,21.4,40,840.6,NA,24,1.1,275,14.5,0,Smoke RMK 113 (Smoke #16),ESAM,FALSE,NA,FALSE,FALSE,FALSE,FALSE,FALSE,FALSE,FALSE,FALSE,FALSE,2026-08-31T00:00:00Z,-121.664948,45.332108,1

Monitor Smoke RMK 113 (Smoke #16), has 1 unique location(s)

Location

  • Blue circles - GPS locations
  • Red circle - clustered location

QC Parameters and Thresholds for an ESAM monitor

Raw PM2.5 Data and QC Removal

Raw CO data (if available)

Raw PM2.5 and Atmospheric Variables

Pollution Rose

Currently disabled.

Additional Functionality

Please contact Jonathan Callahan or Gina Wing if you have ideas for additional functionality.